Time;durP1;ratioP1;P1;durP2;ratioP2;P2;SDS_P1;SDS_P2;PMS_P1;PMS_P2;Temp;Humidity;BMP_temperature;BMP_pressure;BME280_temperature;BME280_humidity;BME280_pressure;Samples;Min_cycle;Max_cycle;Signal;HPM_P1;HPM_P2
2023/05/07 00:00:53;;;;;;;;;;;16.00;88.30;;;;;;4937084;29;19957;-96
2023/05/07 00:03:20;;;;;;;;;;;16.00;88.10;;;;;;4953081;29;19970;-96
2023/05/07 00:05:46;;;;;;;;;;;15.90;88.00;;;;;;4936796;29;20370;-96
2023/05/07 00:08:12;;;;;;;;;;;15.90;88.20;;;;;;4936513;29;19971;-96
2023/05/07 00:10:40;;;;;;;;;;;15.90;88.50;;;;;;4936747;29;19911;-96
2023/05/07 00:13:06;;;;;;;;;;;15.80;88.80;;;;;;4936474;29;19943;-96
2023/05/07 00:15:32;;;;;;;;;;;16.00;88.20;;;;;;4936717;29;19914;-96
2023/05/07 00:18:01;;;;;;;;;;;16.00;87.70;;;;;;4937395;29;19918;-96
2023/05/07 00:20:27;;;;;;;;;;;15.90;86.80;;;;;;4937811;29;19914;-96
2023/05/07 00:22:53;;;;;;;;;;;15.90;86.30;;;;;;4937413;29;19976;-96
2023/05/07 00:25:19;;;;;;;;;;;15.90;86.30;;;;;;4936364;29;19919;-96
2023/05/07 00:27:45;;;;;;;;;;;15.90;86.50;;;;;;4936548;29;20402;-96
2023/05/07 00:30:11;;;;;;;;;;;15.70;87.40;;;;;;4936185;29;19911;-96
2023/05/07 00:32:40;;;;;;;;;;;15.50;88.00;;;;;;4935257;29;19918;-96
2023/05/07 00:35:07;;;;;;;;;;;15.60;88.10;;;;;;4935411;29;19911;-96
2023/05/07 00:37:33;;;;;;;;;;;15.40;88.20;;;;;;4951448;29;19929;-96
2023/05/07 00:39:59;;;;;;;;;;;15.40;88.20;;;;;;4952960;29;19915;-96
2023/05/07 00:42:24;;;;;;;;;;;15.50;87.90;;;;;;4936473;29;19911;-96
2023/05/07 00:44:50;;;;;;;;;;;15.50;88.00;;;;;;4935446;29;19918;-96
2023/05/07 00:47:16;;;;;;;;;;;15.50;88.10;;;;;;4934815;29;19917;-96
2023/05/07 00:49:43;;;;;;;;;;;15.50;88.00;;;;;;4934837;29;19911;-96
2023/05/07 00:52:11;;;;;;;;;;;15.50;88.10;;;;;;4934361;29;20378;-96
2023/05/07 00:54:37;;;;;;;;;;;15.50;88.40;;;;;;4934409;29;19918;-96
2023/05/07 00:57:03;;;;;;;;;;;15.40;88.50;;;;;;4934388;29;19911;-96
2023/05/07 00:59:30;;;;;;;;;;;15.40;88.40;;;;;;4935034;29;19976;-96
2023/05/07 01:01:56;;;;;;;;;;;15.50;88.50;;;;;;4951353;29;19942;-96
2023/05/07 01:04:22;;;;;;;;;;;15.50;88.80;;;;;;4934454;29;19922;-96
2023/05/07 01:06:48;;;;;;;;;;;15.40;88.90;;;;;;4934453;29;19917;-96
2023/05/07 01:09:14;;;;;;;;;;;15.50;88.70;;;;;;4934945;29;19917;-96
2023/05/07 01:11:40;;;;;;;;;;;15.50;88.50;;;;;;4935343;29;20337;-96
2023/05/07 01:14:07;;;;;;;;;;;15.50;88.30;;;;;;4935457;29;19910;-96
2023/05/07 01:16:32;;;;;;;;;;;15.40;88.80;;;;;;4951924;29;19911;-96
2023/05/07 01:18:58;;;;;;;;;;;15.30;89.30;;;;;;4950823;29;19938;-96
2023/05/07 01:21:26;;;;;;;;;;;15.40;89.10;;;;;;4934041;29;19970;-96
2023/05/07 01:23:52;;;;;;;;;;;15.50;89.10;;;;;;4934025;29;19921;-96
2023/05/07 01:26:19;;;;;;;;;;;15.50;88.60;;;;;;4933338;29;19911;-96
2023/05/07 01:28:45;;;;;;;;;;;15.50;88.30;;;;;;4933671;29;19911;-96
2023/05/07 01:31:12;;;;;;;;;;;15.40;88.20;;;;;;4932954;29;19914;-96
2023/05/07 01:33:38;;;;;;;;;;;15.40;88.50;;;;;;4933165;29;19911;-96
2023/05/07 01:36:06;;;;;;;;;;;15.40;88.50;;;;;;4933584;29;20359;-96
2023/05/07 01:38:32;;;;;;;;;;;15.60;88.10;;;;;;4973983;23;19932;-96
2023/05/07 01:40:58;;;;;;;;;;;15.60;88.00;;;;;;4968331;28;19958;-96
2023/05/07 01:43:24;;;;;;;;;;;15.50;88.00;;;;;;4964583;29;19911;-96
2023/05/07 01:45:50;;;;;;;;;;;15.40;88.00;;;;;;4948702;29;19946;-96
2023/05/07 01:48:15;;;;;;;;;;;15.40;88.30;;;;;;4948900;29;19918;-96
2023/05/07 01:50:42;;;;;;;;;;;15.30;88.20;;;;;;4948068;29;19917;-96
2023/05/07 01:53:08;;;;;;;;;;;15.30;88.70;;;;;;4948421;29;19918;-96
2023/05/07 01:55:34;;;;;;;;;;;15.20;88.60;;;;;;4949092;29;19914;-96
2023/05/07 01:58:00;;;;;;;;;;;15.10;88.70;;;;;;4949044;29;19911;-96
2023/05/07 02:00:26;;;;;;;;;;;15.20;88.40;;;;;;4949602;29;19915;-96
2023/05/07 02:02:52;;;;;;;;;;;15.20;88.30;;;;;;4948329;29;19910;-96
2023/05/07 02:05:18;;;;;;;;;;;15.10;88.40;;;;;;4948844;29;19911;-96
2023/05/07 02:07:44;;;;;;;;;;;15.10;88.50;;;;;;4948812;29;19911;-96
2023/05/07 02:10:10;;;;;;;;;;;15.00;88.10;;;;;;4948799;29;19911;-96
2023/05/07 02:12:35;;;;;;;;;;;15.00;88.40;;;;;;4948697;29;19910;-96
2023/05/07 02:15:01;;;;;;;;;;;15.00;88.50;;;;;;4949365;29;19915;-96
2023/05/07 02:17:27;;;;;;;;;;;15.00;88.70;;;;;;4949656;29;20359;-96
2023/05/07 02:19:53;;;;;;;;;;;14.90;88.80;;;;;;4948133;29;19919;-96
2023/05/07 02:22:18;;;;;;;;;;;14.90;88.90;;;;;;4949416;29;19935;-96
2023/05/07 02:24:44;;;;;;;;;;;14.90;88.90;;;;;;4948838;29;19918;-96
2023/05/07 02:27:10;;;;;;;;;;;15.00;89.10;;;;;;4948861;29;19918;-96
2023/05/07 02:29:36;;;;;;;;;;;15.00;88.90;;;;;;4949357;29;19910;-96
2023/05/07 02:32:04;;;;;;;;;;;15.10;88.70;;;;;;4949530;29;19939;-96
2023/05/07 02:34:30;;;;;;;;;;;15.10;88.80;;;;;;4948680;29;19957;-96
2023/05/07 02:36:56;;;;;;;;;;;15.10;88.70;;;;;;4949428;29;19922;-96
2023/05/07 02:39:22;;;;;;;;;;;15.00;88.70;;;;;;4948809;29;19915;-96
2023/05/07 02:41:48;;;;;;;;;;;15.00;88.50;;;;;;4948448;29;19918;-96
2023/05/07 02:44:13;;;;;;;;;;;15.00;88.50;;;;;;4948034;29;19911;-96
2023/05/07 02:46:39;;;;;;;;;;;15.00;88.30;;;;;;4948485;29;19977;-96
2023/05/07 02:49:05;;;;;;;;;;;15.00;88.30;;;;;;4948213;29;20058;-96
2023/05/07 02:51:31;;;;;;;;;;;15.00;88.40;;;;;;4949407;29;19910;-96
2023/05/07 02:53:57;;;;;;;;;;;15.00;88.90;;;;;;4946591;29;19911;-96
2023/05/07 02:56:22;;;;;;;;;;;14.90;89.00;;;;;;4946845;29;19921;-96
2023/05/07 02:58:48;;;;;;;;;;;14.80;89.40;;;;;;4946429;29;19915;-96
2023/05/07 03:01:14;;;;;;;;;;;14.80;89.70;;;;;;4946298;29;19911;-96
2023/05/07 03:03:40;;;;;;;;;;;14.70;89.90;;;;;;4945933;29;19911;-96
2023/05/07 03:06:06;;;;;;;;;;;14.60;90.00;;;;;;4946084;29;19918;-95
2023/05/07 03:08:32;;;;;;;;;;;14.70;90.00;;;;;;4947891;29;20415;-96
2023/05/07 03:10:58;;;;;;;;;;;14.60;90.30;;;;;;4949883;29;19910;-96
2023/05/07 03:13:24;;;;;;;;;;;14.60;90.60;;;;;;4949941;29;19910;-96
2023/05/07 03:15:49;;;;;;;;;;;14.60;90.60;;;;;;4950671;29;19958;-96
2023/05/07 03:18:15;;;;;;;;;;;14.60;90.60;;;;;;4951883;29;19917;-96
2023/05/07 03:20:41;;;;;;;;;;;14.60;90.50;;;;;;4950913;29;19915;-96
2023/05/07 03:23:06;;;;;;;;;;;14.60;90.50;;;;;;4951234;29;19965;-96
2023/05/07 03:25:32;;;;;;;;;;;14.60;90.10;;;;;;4950280;29;19917;-96
2023/05/07 03:27:58;;;;;;;;;;;14.50;90.20;;;;;;4950243;29;19911;-96
2023/05/07 03:30:24;;;;;;;;;;;14.50;90.50;;;;;;4951145;29;19911;-96
2023/05/07 03:32:50;;;;;;;;;;;14.60;90.30;;;;;;4949806;29;19918;-96
2023/05/07 03:35:15;;;;;;;;;;;14.70;90.00;;;;;;4949683;29;20385;-96
2023/05/07 03:37:41;;;;;;;;;;;14.60;90.00;;;;;;4949351;29;19923;-96
2023/05/07 03:40:09;;;;;;;;;;;14.50;90.30;;;;;;4950731;29;19926;-96
2023/05/07 03:42:35;;;;;;;;;;;14.60;90.10;;;;;;4951806;29;19917;-96
2023/05/07 03:45:01;;;;;;;;;;;14.60;90.10;;;;;;4950485;29;20001;-96
2023/05/07 03:47:27;;;;;;;;;;;14.50;90.30;;;;;;4950529;29;19966;-96
2023/05/07 03:49:54;;;;;;;;;;;14.40;90.40;;;;;;4949553;29;19915;-96
2023/05/07 03:52:24;;;;;;;;;;;14.40;90.50;;;;;;4949811;29;19935;-96
2023/05/07 03:54:50;;;;;;;;;;;14.40;90.60;;;;;;4950797;29;19911;-96
2023/05/07 03:57:15;;;;;;;;;;;14.50;90.70;;;;;;4950536;29;19918;-96
2023/05/07 03:59:41;;;;;;;;;;;14.50;90.40;;;;;;4951127;29;20017;-96
2023/05/07 04:02:07;;;;;;;;;;;14.60;90.00;;;;;;4950548;29;19993;-96
2023/05/07 04:04:36;;;;;;;;;;;14.50;89.60;;;;;;4949862;29;19922;-96
2023/05/07 04:07:01;;;;;;;;;;;14.60;89.70;;;;;;4951227;29;19921;-96
2023/05/07 04:09:27;;;;;;;;;;;14.60;89.60;;;;;;4950178;29;19993;-96
2023/05/07 04:11:53;;;;;;;;;;;14.50;90.00;;;;;;4949823;29;19914;-95
2023/05/07 04:14:19;;;;;;;;;;;14.40;90.40;;;;;;4949381;29;19910;-96
2023/05/07 04:16:45;;;;;;;;;;;14.40;90.50;;;;;;4949763;29;19910;-96
2023/05/07 04:19:11;;;;;;;;;;;14.30;90.70;;;;;;4948719;29;19954;-96
2023/05/07 04:21:36;;;;;;;;;;;14.30;90.70;;;;;;4949113;29;19911;-96
2023/05/07 04:24:05;;;;;;;;;;;14.30;90.60;;;;;;4948859;29;19980;-96
2023/05/07 04:26:31;;;;;;;;;;;14.30;91.00;;;;;;4948921;29;19910;-96
2023/05/07 04:28:58;;;;;;;;;;;14.40;90.90;;;;;;4948400;29;19917;-96
2023/05/07 04:31:24;;;;;;;;;;;14.50;90.60;;;;;;4948405;29;19998;-96
2023/05/07 04:33:51;;;;;;;;;;;14.50;90.20;;;;;;4949998;29;19918;-96
2023/05/07 04:36:17;;;;;;;;;;;14.50;89.90;;;;;;4951655;29;19974;-96
2023/05/07 04:38:42;;;;;;;;;;;14.50;90.00;;;;;;4970521;28;19915;-96
2023/05/07 04:41:09;;;;;;;;;;;14.60;90.40;;;;;;4969769;29;19918;-96
2023/05/07 04:43:34;;;;;;;;;;;14.60;90.60;;;;;;4953638;29;19918;-96
2023/05/07 04:46:00;;;;;;;;;;;14.70;90.50;;;;;;4952787;29;19911;-96
2023/05/07 04:48:27;;;;;;;;;;;14.60;90.50;;;;;;4952247;29;20330;-96
2023/05/07 04:50:52;;;;;;;;;;;14.60;90.60;;;;;;4969254;29;19910;-96
2023/05/07 04:53:18;;;;;;;;;;;14.50;90.70;;;;;;4952807;29;19932;-96
2023/05/07 04:55:45;;;;;;;;;;;14.60;90.60;;;;;;4952337;29;19918;-96
2023/05/07 04:58:11;;;;;;;;;;;14.60;90.30;;;;;;4952889;29;20023;-96
2023/05/07 05:00:38;;;;;;;;;;;14.60;90.30;;;;;;4952069;29;19918;-96
2023/05/07 05:03:05;;;;;;;;;;;14.50;90.80;;;;;;4951485;29;19922;-96
2023/05/07 05:05:30;;;;;;;;;;;14.50;91.00;;;;;;4951137;29;20024;-96
2023/05/07 05:07:56;;;;;;;;;;;14.60;91.10;;;;;;4969317;29;19932;-96
2023/05/07 05:10:22;;;;;;;;;;;14.60;91.00;;;;;;4952595;29;19910;-96
2023/05/07 05:12:48;;;;;;;;;;;14.70;91.00;;;;;;4951658;29;19942;-96
2023/05/07 05:15:14;;;;;;;;;;;14.80;90.90;;;;;;4952307;29;19954;-96
2023/05/07 05:17:40;;;;;;;;;;;14.90;90.80;;;;;;4952204;29;19949;-96
2023/05/07 05:20:06;;;;;;;;;;;14.90;90.60;;;;;;4952217;29;19914;-96
2023/05/07 05:22:32;;;;;;;;;;;14.90;90.50;;;;;;4969762;29;19933;-96
2023/05/07 05:24:58;;;;;;;;;;;14.90;90.70;;;;;;4951146;29;19918;-96
2023/05/07 05:27:26;;;;;;;;;;;14.80;90.70;;;;;;4951546;29;19910;-96
2023/05/07 05:29:52;;;;;;;;;;;14.80;90.60;;;;;;4953450;29;19921;-96
2023/05/07 05:32:18;;;;;;;;;;;14.90;90.30;;;;;;4969932;28;19910;-96
2023/05/07 05:34:44;;;;;;;;;;;14.80;90.40;;;;;;4953376;29;20331;-96
2023/05/07 05:37:10;;;;;;;;;;;14.90;90.90;;;;;;4953856;29;19929;-96
2023/05/07 05:39:36;;;;;;;;;;;14.90;90.70;;;;;;4953819;29;19914;-96
2023/05/07 05:42:02;;;;;;;;;;;14.90;90.70;;;;;;4953834;29;19921;-96
2023/05/07 05:44:28;;;;;;;;;;;15.00;90.60;;;;;;4954147;29;19918;-96
2023/05/07 05:46:59;;;;;;;;;;;15.10;90.70;;;;;;4953738;29;20404;-96
2023/05/07 05:49:27;;;;;;;;;;;15.30;91.00;;;;;;4952272;29;19910;-96
2023/05/07 05:51:53;;;;;;;;;;;15.30;90.70;;;;;;4969916;29;19917;-96
2023/05/07 05:54:18;;;;;;;;;;;15.40;90.80;;;;;;4952646;29;20278;-96
2023/05/07 05:56:44;;;;;;;;;;;15.40;90.80;;;;;;4951591;29;20286;-96
2023/05/07 05:59:10;;;;;;;;;;;15.40;90.80;;;;;;4951860;29;19915;-96
2023/05/07 06:01:36;;;;;;;;;;;15.50;90.90;;;;;;4969327;29;19934;-96
2023/05/07 06:04:02;;;;;;;;;;;15.60;91.10;;;;;;4951900;29;20061;-96
2023/05/07 06:06:28;;;;;;;;;;;15.70;91.40;;;;;;4952096;29;19915;-96
2023/05/07 06:08:53;;;;;;;;;;;15.80;91.70;;;;;;4952143;29;19942;-96
2023/05/07 06:11:19;;;;;;;;;;;15.90;91.50;;;;;;4969943;29;19910;-96
2023/05/07 06:13:45;;;;;;;;;;;16.00;90.80;;;;;;4953479;29;19933;-96
2023/05/07 06:16:11;;;;;;;;;;;16.20;90.10;;;;;;4952804;29;20366;-96
2023/05/07 06:18:37;;;;;;;;;;;16.30;89.80;;;;;;4953318;29;19934;-96
2023/05/07 06:21:03;;;;;;;;;;;16.50;89.70;;;;;;4954284;29;19920;-96
2023/05/07 06:23:28;;;;;;;;;;;16.70;89.70;;;;;;4953588;29;19910;-96
2023/05/07 06:25:57;;;;;;;;;;;16.80;89.60;;;;;;4953647;29;19936;-96
2023/05/07 06:28:23;;;;;;;;;;;16.90;89.10;;;;;;4954731;29;19921;-96
2023/05/07 06:30:49;;;;;;;;;;;17.00;88.30;;;;;;4956345;29;19911;-96
2023/05/07 06:33:15;;;;;;;;;;;17.20;87.20;;;;;;4956657;29;19910;-96
2023/05/07 06:35:41;;;;;;;;;;;17.30;86.70;;;;;;4956912;29;19942;-96
2023/05/07 06:38:07;;;;;;;;;;;17.40;86.00;;;;;;4956153;29;19929;-96
2023/05/07 06:40:33;;;;;;;;;;;17.60;85.90;;;;;;4959321;29;19981;-96
2023/05/07 06:42:59;;;;;;;;;;;17.80;85.50;;;;;;4956232;28;19917;-96
2023/05/07 06:45:25;;;;;;;;;;;17.80;84.40;;;;;;4973123;29;19918;-96
2023/05/07 06:47:56;;;;;;;;;;;18.00;83.80;;;;;;4956372;29;19954;-96
2023/05/07 06:50:22;;;;;;;;;;;18.10;83.50;;;;;;4973358;29;19911;-96
2023/05/07 06:52:48;;;;;;;;;;;18.30;83.40;;;;;;4955604;29;20283;-96
2023/05/07 06:55:14;;;;;;;;;;;18.30;83.20;;;;;;4955841;29;19914;-96
2023/05/07 06:57:40;;;;;;;;;;;18.50;81.80;;;;;;4973269;29;19934;-96
2023/05/07 07:00:09;;;;;;;;;;;18.60;79.90;;;;;;4954917;29;19915;-96
2023/05/07 07:02:36;;;;;;;;;;;18.70;79.70;;;;;;4972083;29;19911;-96
2023/05/07 07:05:02;;;;;;;;;;;18.80;79.80;;;;;;4955826;29;19915;-96
2023/05/07 07:07:28;;;;;;;;;;;18.90;79.80;;;;;;4956105;29;19934;-96
2023/05/07 07:09:55;;;;;;;;;;;19.00;79.80;;;;;;4973397;29;19914;-96
2023/05/07 07:12:22;;;;;;;;;;;19.10;79.60;;;;;;4973533;29;19910;-96
2023/05/07 07:14:48;;;;;;;;;;;19.20;79.70;;;;;;4956475;29;19911;-96
2023/05/07 07:17:14;;;;;;;;;;;19.30;78.50;;;;;;4957106;29;19942;-96
2023/05/07 07:19:40;;;;;;;;;;;19.50;77.60;;;;;;4955907;29;19914;-96
2023/05/07 07:22:06;;;;;;;;;;;19.60;77.00;;;;;;4956431;29;19940;-96
2023/05/07 07:24:32;;;;;;;;;;;19.80;77.00;;;;;;4956182;29;19911;-96
2023/05/07 07:27:00;;;;;;;;;;;20.00;76.70;;;;;;4957646;29;19914;-96
2023/05/07 07:29:26;;;;;;;;;;;20.10;76.80;;;;;;4955866;29;20367;-96
2023/05/07 07:31:55;;;;;;;;;;;20.30;76.20;;;;;;4956897;29;19895;-96
2023/05/07 07:34:24;;;;;;;;;;;20.40;74.50;;;;;;4956918;29;19918;-96
2023/05/07 07:36:49;;;;;;;;;;;20.60;75.20;;;;;;4953114;29;19923;-96
2023/05/07 07:39:16;;;;;;;;;;;20.70;75.00;;;;;;4953100;29;19915;-96
2023/05/07 07:41:43;;;;;;;;;;;20.80;73.60;;;;;;4952805;29;19942;-96
2023/05/07 07:44:12;;;;;;;;;;;20.90;73.30;;;;;;4953348;29;19911;-96
2023/05/07 07:46:38;;;;;;;;;;;21.00;70.80;;;;;;4953381;29;19910;-96
2023/05/07 07:49:08;;;;;;;;;;;21.10;71.70;;;;;;4952182;29;19918;-96
2023/05/07 07:51:36;;;;;;;;;;;21.20;71.50;;;;;;4953563;29;19922;-96
2023/05/07 07:54:02;;;;;;;;;;;21.30;69.60;;;;;;4953780;29;19931;-96
2023/05/07 07:56:29;;;;;;;;;;;21.30;66.20;;;;;;4956073;29;19911;-96
2023/05/07 07:58:57;;;;;;;;;;;21.50;66.30;;;;;;4955335;29;20009;-96
2023/05/07 08:01:23;;;;;;;;;;;21.50;65.60;;;;;;4955361;29;19915;-96
2023/05/07 08:03:53;;;;;;;;;;;21.60;66.10;;;;;;4955638;29;19910;-96
2023/05/07 08:06:22;;;;;;;;;;;21.70;65.90;;;;;;4956904;29;19910;-96
2023/05/07 08:08:54;;;;;;;;;;;21.80;64.90;;;;;;4956061;29;19918;-96
2023/05/07 08:11:21;;;;;;;;;;;21.90;64.50;;;;;;4956628;29;19965;-96
2023/05/07 08:13:47;;;;;;;;;;;22.00;63.40;;;;;;4956753;29;19918;-96
2023/05/07 08:16:14;;;;;;;;;;;22.20;65.30;;;;;;4956661;29;20449;-96
2023/05/07 08:18:43;;;;;;;;;;;22.30;64.70;;;;;;4956367;29;19911;-96
2023/05/07 08:21:09;;;;;;;;;;;22.40;64.90;;;;;;4955665;29;19918;-96
2023/05/07 08:23:35;;;;;;;;;;;22.50;63.20;;;;;;4956049;29;19911;-96
2023/05/07 08:26:03;;;;;;;;;;;22.50;61.70;;;;;;4956769;29;19978;-96
2023/05/07 08:28:33;;;;;;;;;;;22.70;62.10;;;;;;4954980;29;19939;-96
2023/05/07 08:31:00;;;;;;;;;;;22.80;63.30;;;;;;4954573;29;19911;-96
2023/05/07 08:33:26;;;;;;;;;;;22.80;60.50;;;;;;4955803;29;19911;-96
2023/05/07 08:35:52;;;;;;;;;;;22.80;57.50;;;;;;4954601;29;19911;-96
2023/05/07 08:38:18;;;;;;;;;;;22.80;57.50;;;;;;4953013;29;19927;-96
2023/05/07 08:40:44;;;;;;;;;;;22.80;60.00;;;;;;4953575;29;19919;-96
2023/05/07 08:43:12;;;;;;;;;;;22.80;60.40;;;;;;4954551;29;19911;-96
2023/05/07 08:45:41;;;;;;;;;;;22.80;60.20;;;;;;4955298;29;19978;-96
2023/05/07 08:48:15;;;;;;;;;;;22.80;60.40;;;;;;4955065;29;19961;-96
2023/05/07 08:50:41;;;;;;;;;;;22.90;61.50;;;;;;4955542;29;19911;-96
2023/05/07 08:53:07;;;;;;;;;;;23.00;60.90;;;;;;4956717;29;19895;-96
2023/05/07 08:55:35;;;;;;;;;;;23.10;61.20;;;;;;4955956;29;19911;-96
2023/05/07 08:58:02;;;;;;;;;;;23.30;60.50;;;;;;4955721;29;19918;-96
2023/05/07 09:00:28;;;;;;;;;;;23.30;58.70;;;;;;4955936;29;19914;-96
2023/05/07 09:02:54;;;;;;;;;;;23.30;60.00;;;;;;4956307;29;19921;-96
2023/05/07 09:05:20;;;;;;;;;;;23.40;59.20;;;;;;4954771;29;19911;-96
2023/05/07 09:07:48;;;;;;;;;;;23.50;59.20;;;;;;4954429;29;19911;-96
2023/05/07 09:10:15;;;;;;;;;;;23.40;60.90;;;;;;4955283;29;19915;-96
2023/05/07 09:12:41;;;;;;;;;;;23.40;60.80;;;;;;4954046;29;19935;-96
2023/05/07 09:15:12;;;;;;;;;;;23.30;59.60;;;;;;4954314;29;19911;-96
2023/05/07 09:17:39;;;;;;;;;;;23.40;61.20;;;;;;4955063;29;19970;-96
2023/05/07 09:20:05;;;;;;;;;;;23.30;58.00;;;;;;4954299;29;19921;-96
2023/05/07 09:22:32;;;;;;;;;;;23.30;59.50;;;;;;4953370;29;19934;-96
2023/05/07 09:24:58;;;;;;;;;;;23.30;60.20;;;;;;4955902;29;19970;-96
2023/05/07 09:27:25;;;;;;;;;;;23.50;60.80;;;;;;4955495;29;19915;-96
2023/05/07 09:29:51;;;;;;;;;;;23.50;59.30;;;;;;4954821;29;19968;-96
2023/05/07 09:32:18;;;;;;;;;;;23.60;59.70;;;;;;4954657;29;19911;-96
2023/05/07 09:34:44;;;;;;;;;;;23.60;58.10;;;;;;4954092;29;19922;-96
2023/05/07 09:37:12;;;;;;;;;;;23.70;59.00;;;;;;5004787;23;20367;-96
2023/05/07 09:39:41;;;;;;;;;;;23.80;58.10;;;;;;4938303;29;19942;-96
2023/05/07 09:42:11;;;;;;;;;;;23.70;57.70;;;;;;4938942;29;19911;-96
2023/05/07 09:44:40;;;;;;;;;;;23.70;58.50;;;;;;4926484;29;19917;-96
2023/05/07 09:47:06;;;;;;;;;;;23.80;58.90;;;;;;4920290;29;19936;-96
2023/05/07 09:49:37;;;;;;;;;;;23.80;57.50;;;;;;4919689;29;19935;-96
2023/05/07 09:52:05;;;;;;;;;;;23.80;57.50;;;;;;4919040;29;19923;-96
2023/05/07 09:54:32;;;;;;;;;;;23.70;57.90;;;;;;4935763;29;19915;-96
2023/05/07 09:56:58;;;;;;;;;;;23.60;59.00;;;;;;4918897;29;19975;-96
2023/05/07 09:59:25;;;;;;;;;;;23.60;60.60;;;;;;4919676;29;19923;-96
2023/05/07 10:01:51;;;;;;;;;;;23.70;62.00;;;;;;4919067;29;19911;-96
2023/05/07 10:04:18;;;;;;;;;;;23.70;59.70;;;;;;4920023;29;19935;-96
2023/05/07 10:06:44;;;;;;;;;;;23.80;59.80;;;;;;4919783;29;19915;-96
2023/05/07 10:09:11;;;;;;;;;;;23.90;57.90;;;;;;4920841;29;19935;-96
2023/05/07 10:11:38;;;;;;;;;;;24.00;58.00;;;;;;4920693;29;19918;-96
2023/05/07 10:14:09;;;;;;;;;;;24.10;58.00;;;;;;4920736;29;19911;-96
2023/05/07 10:16:37;;;;;;;;;;;24.20;58.10;;;;;;4920875;29;19918;-96
2023/05/07 10:19:04;;;;;;;;;;;24.30;57.50;;;;;;4921335;29;19919;-96
2023/05/07 10:21:34;;;;;;;;;;;24.40;56.30;;;;;;4921056;29;19915;-96
2023/05/07 10:24:08;;;;;;;;;;;24.50;57.60;;;;;;4921612;29;19986;-96
2023/05/07 10:26:40;;;;;;;;;;;24.60;57.30;;;;;;4921216;29;19963;-96
2023/05/07 10:29:08;;;;;;;;;;;24.70;57.90;;;;;;4921133;29;19937;-96
2023/05/07 10:31:56;;;;;;;;;;;24.80;58.80;;;;;;4921298;29;19946;-96
2023/05/07 10:34:42;;;;;;;;;;;24.90;57.80;;;;;;4920423;29;20013;-96
2023/05/07 10:37:10;;;;;;;;;;;24.90;57.90;;;;;;4920370;29;19923;-96
2023/05/07 10:39:37;;;;;;;;;;;25.00;57.80;;;;;;4938073;29;20017;-96
2023/05/07 10:42:10;;;;;;;;;;;25.00;58.20;;;;;;4921214;29;19918;-96
2023/05/07 10:44:37;;;;;;;;;;;24.90;55.70;;;;;;4918884;29;19919;-96
2023/05/07 10:47:04;;;;;;;;;;;24.60;55.80;;;;;;4919891;29;19915;-96
2023/05/07 10:49:33;;;;;;;;;;;24.70;56.90;;;;;;4919548;29;20002;-96
2023/05/07 10:52:15;;;;;;;;;;;24.70;56.70;;;;;;4920083;29;19934;-96
2023/05/07 10:54:42;;;;;;;;;;;24.90;55.80;;;;;;4935963;29;19951;-96
2023/05/07 10:57:31;;;;;;;;;;;25.00;54.60;;;;;;4935854;29;19984;-96
2023/05/07 10:59:57;;;;;;;;;;;25.10;54.70;;;;;;4919313;29;19978;-96
2023/05/07 11:02:23;;;;;;;;;;;25.20;56.30;;;;;;4919832;29;20348;-96
2023/05/07 11:05:09;;;;;;;;;;;25.50;56.00;;;;;;4919209;29;19919;-96
2023/05/07 11:07:35;;;;;;;;;;;25.60;54.90;;;;;;4919308;29;19911;-96
2023/05/07 11:10:03;;;;;;;;;;;25.80;55.00;;;;;;4919753;29;19971;-96
2023/05/07 11:12:48;;;;;;;;;;;26.10;55.70;;;;;;4937002;29;19914;-96
2023/05/07 11:15:33;;;;;;;;;;;26.30;55.70;;;;;;4919383;29;19911;-96
2023/05/07 11:18:08;;;;;;;;;;;26.20;54.60;;;;;;4919077;29;19912;-96
2023/05/07 11:20:43;;;;;;;;;;;26.20;55.10;;;;;;4919366;29;19915;-96
2023/05/07 11:23:29;;;;;;;;;;;26.20;56.20;;;;;;4919751;29;19911;-96
2023/05/07 11:25:59;;;;;;;;;;;26.20;53.50;;;;;;4919402;29;19946;-96
2023/05/07 11:28:30;;;;;;;;;;;26.30;55.00;;;;;;4919695;29;20299;-96
2023/05/07 11:30:57;;;;;;;;;;;26.30;55.50;;;;;;4923393;29;19918;-96
2023/05/07 11:33:29;;;;;;;;;;;26.30;53.30;;;;;;4923468;29;19918;-96
2023/05/07 11:35:55;;;;;;;;;;;26.30;55.50;;;;;;4923684;29;19896;-96
2023/05/07 11:38:21;;;;;;;;;;;26.60;54.70;;;;;;4923941;29;19930;-96
2023/05/07 11:40:52;;;;;;;;;;;26.70;55.10;;;;;;4923388;29;19915;-96
2023/05/07 11:43:21;;;;;;;;;;;26.80;52.10;;;;;;4924380;29;19935;-96
2023/05/07 11:45:48;;;;;;;;;;;27.10;53.90;;;;;;4923406;29;19974;-96
2023/05/07 11:48:17;;;;;;;;;;;27.30;50.90;;;;;;4924013;29;19912;-96
2023/05/07 11:50:55;;;;;;;;;;;27.50;50.00;;;;;;4924109;29;19941;-96
2023/05/07 11:53:29;;;;;;;;;;;27.70;50.30;;;;;;4923808;29;19918;-96
2023/05/07 11:55:55;;;;;;;;;;;27.70;49.30;;;;;;4923304;29;19911;-96
2023/05/07 11:58:22;;;;;;;;;;;27.60;49.70;;;;;;4923110;29;19919;-96
2023/05/07 12:00:56;;;;;;;;;;;27.60;48.80;;;;;;4923711;29;19899;-96
2023/05/07 12:03:26;;;;;;;;;;;27.80;48.80;;;;;;4940576;29;19911;-96
2023/05/07 12:05:54;;;;;;;;;;;28.00;48.60;;;;;;4923722;29;19918;-96
2023/05/07 12:08:21;;;;;;;;;;;28.10;50.70;;;;;;4924167;29;19907;-96
2023/05/07 12:10:50;;;;;;;;;;;28.30;47.90;;;;;;4939997;29;19918;-96
2023/05/07 12:13:25;;;;;;;;;;;28.40;47.20;;;;;;4923153;29;19918;-96
2023/05/07 12:15:52;;;;;;;;;;;28.50;46.20;;;;;;4924279;29;19911;-96
2023/05/07 12:18:21;;;;;;;;;;;28.70;46.30;;;;;;4923975;29;19896;-96
2023/05/07 12:20:53;;;;;;;;;;;28.90;47.20;;;;;;4922650;29;19915;-96
2023/05/07 12:23:20;;;;;;;;;;;29.10;46.20;;;;;;4924522;29;19911;-97
2023/05/07 12:25:47;;;;;;;;;;;29.30;49.30;;;;;;4924325;29;19896;-96
2023/05/07 12:28:16;;;;;;;;;;;29.50;48.60;;;;;;4923252;29;19911;-96
2023/05/07 12:30:47;;;;;;;;;;;29.30;46.80;;;;;;4923946;29;19971;-96
2023/05/07 12:33:21;;;;;;;;;;;29.20;46.30;;;;;;4922603;29;19918;-96
2023/05/07 12:35:50;;;;;;;;;;;29.10;48.60;;;;;;4922459;29;20355;-96
2023/05/07 12:38:17;;;;;;;;;;;29.10;48.30;;;;;;4922530;29;19927;-96
2023/05/07 12:40:50;;;;;;;;;;;29.20;49.10;;;;;;4921863;29;19916;-96
2023/05/07 12:43:27;;;;;;;;;;;29.20;46.40;;;;;;4921943;29;19919;-96
2023/05/07 12:46:02;;;;;;;;;;;29.40;45.80;;;;;;4921977;29;19911;-97
2023/05/07 12:48:32;;;;;;;;;;;29.40;46.80;;;;;;4921392;29;19912;-96
2023/05/07 12:51:00;;;;;;;;;;;29.90;47.20;;;;;;4921680;29;19975;-96
2023/05/07 12:53:26;;;;;;;;;;;30.00;45.10;;;;;;4921367;29;19912;-96
2023/05/07 12:55:56;;;;;;;;;;;29.90;44.10;;;;;;4921836;29;19944;-97
2023/05/07 12:58:28;;;;;;;;;;;29.50;45.20;;;;;;4938454;29;19918;-96
2023/05/07 13:01:00;;;;;;;;;;;29.50;45.90;;;;;;4921790;29;19922;-96
2023/05/07 13:03:26;;;;;;;;;;;29.20;46.30;;;;;;4920952;29;19986;-96
2023/05/07 13:05:52;;;;;;;;;;;28.60;46.70;;;;;;4921913;29;19911;-96
2023/05/07 13:08:26;;;;;;;;;;;28.60;46.30;;;;;;4921382;29;19943;-96
2023/05/07 13:10:53;;;;;;;;;;;28.70;47.50;;;;;;4938460;29;19979;-96
2023/05/07 13:13:20;;;;;;;;;;;28.90;46.40;;;;;;4922403;29;19915;-96
2023/05/07 13:15:50;;;;;;;;;;;29.20;48.80;;;;;;4922553;29;19911;-96
2023/05/07 13:18:17;;;;;;;;;;;29.60;45.70;;;;;;4923344;29;19935;-96
2023/05/07 13:20:44;;;;;;;;;;;30.20;46.30;;;;;;4922464;29;19922;-96
2023/05/07 13:23:13;;;;;;;;;;;30.20;44.40;;;;;;4922723;29;19911;-96
2023/05/07 13:25:42;;;;;;;;;;;30.30;44.80;;;;;;4939387;29;20002;-96
2023/05/07 13:28:09;;;;;;;;;;;30.20;45.40;;;;;;4922471;29;19895;-96
2023/05/07 13:30:36;;;;;;;;;;;30.60;45.90;;;;;;4922880;29;19918;-96
2023/05/07 13:33:03;;;;;;;;;;;30.90;44.30;;;;;;4922659;29;19945;-96
2023/05/07 13:35:29;;;;;;;;;;;31.10;42.50;;;;;;4921418;29;19918;-96
2023/05/07 13:37:59;;;;;;;;;;;30.70;42.90;;;;;;4912771;29;19908;-96
2023/05/07 13:40:28;;;;;;;;;;;30.60;43.60;;;;;;4902431;29;19922;-96
2023/05/07 13:43:01;;;;;;;;;;;31.20;42.30;;;;;;4902998;29;19895;-96
2023/05/07 13:45:31;;;;;;;;;;;31.30;41.80;;;;;;4902530;29;19911;-96
2023/05/07 13:48:00;;;;;;;;;;;31.30;41.00;;;;;;4904066;29;19972;-96
2023/05/07 13:50:32;;;;;;;;;;;31.70;42.00;;;;;;4904900;29;20000;-96
2023/05/07 13:53:05;;;;;;;;;;;32.20;40.50;;;;;;4920707;29;19923;-96
2023/05/07 13:55:31;;;;;;;;;;;32.50;43.60;;;;;;4904007;29;19915;-96
2023/05/07 13:58:11;;;;;;;;;;;32.90;40.40;;;;;;4904149;29;19911;-96
2023/05/07 14:00:47;;;;;;;;;;;32.90;40.50;;;;;;4921034;29;19922;-96
2023/05/07 14:03:20;;;;;;;;;;;33.10;40.60;;;;;;4920092;29;19911;-96
2023/05/07 14:05:46;;;;;;;;;;;32.90;39.90;;;;;;4902884;29;19918;-96
2023/05/07 14:08:19;;;;;;;;;;;32.70;39.80;;;;;;4903436;29;19953;-96
2023/05/07 14:10:51;;;;;;;;;;;32.50;41.40;;;;;;4904644;29;19912;-96
2023/05/07 14:13:30;;;;;;;;;;;32.20;40.70;;;;;;4904851;29;19978;-96
2023/05/07 14:16:04;;;;;;;;;;;32.30;40.20;;;;;;4920109;29;19911;-96
2023/05/07 14:18:38;;;;;;;;;;;32.10;40.20;;;;;;4903980;29;19939;-96